Time;durP1;ratioP1;P1;durP2;ratioP2;P2;SDS_P1;SDS_P2;PMS_P1;PMS_P2;Temp;Humidity;BMP_temperature;BMP_pressure;BME280_temperature;BME280_humidity;BME280_pressure;Samples;Min_cycle;Max_cycle;Signal;HPM_P1;HPM_P2
2023/06/01 00:02:09;;;;;;;8.18;3.90;;;14.10;99.90;;;;;;5072335;28;20235;-84
2023/06/01 00:04:40;;;;;;;8.77;3.88;;;14.10;99.90;;;;;;5073400;28;20173;-85
2023/06/01 00:07:06;;;;;;;8.63;4.05;;;14.00;99.90;;;;;;5073971;28;20188;-83
2023/06/01 00:09:32;;;;;;;10.18;4.20;;;13.90;99.90;;;;;;5073439;28;20179;-83
2023/06/01 00:11:58;;;;;;;11.45;4.35;;;13.90;99.90;;;;;;5072467;28;20185;-85
2023/06/01 00:14:24;;;;;;;8.25;3.92;;;13.80;99.90;;;;;;5073418;28;20230;-86
2023/06/01 00:16:51;;;;;;;11.18;4.70;;;13.60;99.90;;;;;;5072035;28;20615;-84
2023/06/01 00:19:18;;;;;;;9.93;4.15;;;13.60;99.90;;;;;;5070152;28;20298;-85
2023/06/01 00:21:44;;;;;;;8.38;3.85;;;13.40;99.90;;;;;;5072918;28;20196;-85
2023/06/01 00:24:09;;;;;;;12.93;4.30;;;13.30;99.90;;;;;;5071490;28;20501;-85
2023/06/01 00:26:35;;;;;;;10.55;3.83;;;13.30;99.90;;;;;;5072021;28;20296;-85
2023/06/01 00:29:02;;;;;;;9.27;3.92;;;13.20;99.90;;;;;;5070770;28;20268;-85
2023/06/01 00:31:28;;;;;;;10.88;4.38;;;13.20;99.90;;;;;;5072016;28;20181;-84
2023/06/01 00:33:54;;;;;;;8.60;4.00;;;13.10;99.90;;;;;;5071565;28;20571;-85
2023/06/01 00:36:20;;;;;;;8.52;4.32;;;13.00;99.90;;;;;;5071966;28;20185;-83
2023/06/01 00:38:46;;;;;;;11.68;4.97;;;12.90;99.90;;;;;;5070914;28;20239;-84
2023/06/01 00:41:12;;;;;;;10.10;4.35;;;12.80;99.90;;;;;;5070937;28;20217;-84
2023/06/01 00:43:38;;;;;;;11.60;4.55;;;12.70;99.90;;;;;;5071645;28;20520;-83
2023/06/01 00:46:04;;;;;;;9.93;3.78;;;12.70;99.90;;;;;;5072858;28;20185;-84
2023/06/01 00:48:30;;;;;;;7.95;4.13;;;12.60;99.90;;;;;;5071009;28;20173;-84
2023/06/01 00:50:58;;;;;;;13.95;4.50;;;12.50;99.90;;;;;;5069842;28;20303;-84
2023/06/01 00:53:25;;;;;;;9.68;4.15;;;12.50;99.90;;;;;;5072095;28;20180;-83
2023/06/01 00:55:51;;;;;;;8.60;4.10;;;12.50;99.90;;;;;;5072939;28;20256;-84
2023/06/01 00:58:17;;;;;;;10.32;4.38;;;12.50;99.90;;;;;;5072707;28;20234;-83
2023/06/01 01:00:43;;;;;;;12.75;4.63;;;12.50;99.90;;;;;;5070480;28;20295;-84
2023/06/01 01:03:09;;;;;;;11.95;4.40;;;12.50;99.90;;;;;;5072656;28;20173;-85
2023/06/01 01:05:40;;;;;;;11.80;4.20;;;12.50;99.90;;;;;;5080079;28;20228;-84
2023/06/01 01:08:17;;;;;;;10.40;4.28;;;12.60;99.90;;;;;;5092341;28;20623;-85
2023/06/01 01:11:03;;;;;;;12.65;4.18;;;12.50;99.90;;;;;;5092413;28;20188;-85
2023/06/01 01:13:51;;;;;;;10.15;4.43;;;12.60;99.90;;;;;;5093551;28;20165;-85
2023/06/01 01:16:35;;;;;;;14.27;4.53;;;12.70;99.90;;;;;;5093383;28;20188;-86
2023/06/01 01:19:16;;;;;;;8.43;4.00;;;12.60;99.90;;;;;;5093525;28;20614;-85
2023/06/01 01:21:50;;;;;;;8.18;3.85;;;12.70;99.90;;;;;;5091976;28;20208;-84
2023/06/01 01:24:45;;;;;;;8.75;4.32;;;12.60;99.90;;;;;;5093324;28;20163;-85
2023/06/01 01:27:29;;;;;;;11.10;4.18;;;12.60;99.90;;;;;;5083013;28;20184;-85
2023/06/01 01:30:05;;;;;;;12.75;4.50;;;12.50;99.90;;;;;;5094056;28;20490;-84
2023/06/01 01:32:31;;;;;;;10.40;4.70;;;12.50;99.90;;;;;;5097162;28;20156;-84
2023/06/01 01:34:59;;;;;;;11.73;5.13;;;12.50;99.90;;;;;;5095750;28;20180;-84
2023/06/01 01:37:25;;;;;;;11.65;4.85;;;12.50;99.90;;;;;;5095659;28;20260;-85
2023/06/01 01:39:51;;;;;;;17.08;5.65;;;12.40;99.90;;;;;;5095883;28;20248;-85
2023/06/01 01:42:17;;;;;;;14.52;4.80;;;12.30;99.90;;;;;;5095733;28;20211;-85
2023/06/01 01:44:43;;;;;;;9.80;5.13;;;12.20;99.90;;;;;;5097078;28;20172;-86
2023/06/01 01:47:39;;;;;;;11.32;4.72;;;12.20;99.90;;;;;;5097158;28;20168;-85
2023/06/01 01:50:10;;;;;;;15.60;6.13;;;12.20;99.90;;;;;;5097115;28;20165;-86
2023/06/01 01:52:39;;;;;;;14.02;5.72;;;12.10;99.90;;;;;;5096685;28;20180;-85
2023/06/01 01:55:07;;;;;;;13.27;5.30;;;12.10;99.90;;;;;;5096978;28;20171;-86
2023/06/01 01:57:35;;;;;;;12.80;6.05;;;12.00;99.90;;;;;;5095655;28;20607;-84
2023/06/01 02:00:03;;;;;;;9.18;5.10;;;12.10;99.90;;;;;;5095108;28;20173;-84
2023/06/01 02:02:30;;;;;;;10.40;5.35;;;12.10;99.90;;;;;;5096817;28;20180;-85
2023/06/01 02:04:56;;;;;;;12.27;5.15;;;12.10;99.90;;;;;;5095218;28;20224;-84
2023/06/01 02:07:21;;;;;;;14.68;5.88;;;12.00;99.90;;;;;;5096467;28;20542;-85
2023/06/01 02:09:47;;;;;;;11.18;5.32;;;12.10;99.90;;;;;;5095231;28;20665;-84
2023/06/01 02:12:13;;;;;;;14.85;5.22;;;12.10;99.90;;;;;;5094988;28;20518;-84
2023/06/01 02:14:39;;;;;;;11.30;5.22;;;12.10;99.90;;;;;;5096257;28;20183;-84
2023/06/01 02:17:05;;;;;;;8.18;4.90;;;12.20;99.90;;;;;;5095241;28;20611;-84
2023/06/01 02:19:31;;;;;;;15.45;5.45;;;12.20;99.90;;;;;;5095203;28;20608;-84
2023/06/01 02:21:57;;;;;;;9.50;5.22;;;12.20;99.90;;;;;;5096242;28;20723;-84
2023/06/01 02:24:22;;;;;;;17.05;5.50;;;12.30;99.90;;;;;;5095023;28;20611;-85
2023/06/01 02:26:51;;;;;;;11.05;4.90;;;12.20;99.90;;;;;;5096260;28;20179;-83
2023/06/01 02:29:21;;;;;;;13.68;5.90;;;12.20;99.90;;;;;;5096203;28;20250;-85
2023/06/01 02:31:47;;;;;;;14.63;5.80;;;12.10;99.90;;;;;;5094816;28;20176;-85
2023/06/01 02:34:13;;;;;;;9.80;5.70;;;12.10;99.90;;;;;;5096253;28;20223;-84
2023/06/01 02:36:39;;;;;;;11.40;5.38;;;12.10;99.90;;;;;;5095719;28;20645;-84
2023/06/01 02:39:04;;;;;;;13.27;5.93;;;12.10;99.90;;;;;;5096119;28;20548;-86
2023/06/01 02:41:30;;;;;;;10.55;4.95;;;12.10;99.90;;;;;;5093733;28;20307;-84
2023/06/01 02:43:56;;;;;;;13.35;5.72;;;12.10;99.90;;;;;;5094481;28;20524;-84
2023/06/01 02:46:21;;;;;;;11.60;6.00;;;12.10;99.90;;;;;;5094765;28;20241;-84
2023/06/01 02:48:47;;;;;;;19.33;6.43;;;12.10;99.90;;;;;;5095908;28;20173;-84
2023/06/01 02:51:13;;;;;;;11.07;5.63;;;12.10;99.90;;;;;;5094230;28;20234;-86
2023/06/01 02:53:42;;;;;;;13.32;6.63;;;12.00;99.90;;;;;;5095798;28;20164;-86
2023/06/01 02:56:08;;;;;;;16.38;6.90;;;12.10;99.90;;;;;;5094726;28;20267;-85
2023/06/01 02:58:34;;;;;;;10.48;6.28;;;12.00;99.90;;;;;;5094513;28;20180;-84
2023/06/01 03:01:00;;;;;;;11.98;6.47;;;11.90;99.90;;;;;;5094260;28;20212;-84
2023/06/01 03:03:26;;;;;;;12.50;6.57;;;11.90;99.90;;;;;;5095492;28;20298;-86
2023/06/01 03:05:53;;;;;;;15.00;7.60;;;11.90;99.90;;;;;;5082770;28;20221;-85
2023/06/01 03:08:19;;;;;;;17.85;7.63;;;11.90;99.90;;;;;;5073952;28;20177;-83
2023/06/01 03:10:45;;;;;;;13.25;7.30;;;11.80;99.90;;;;;;5074871;28;20161;-84
2023/06/01 03:13:12;;;;;;;12.52;7.25;;;11.80;99.90;;;;;;5073854;28;20204;-84
2023/06/01 03:15:38;;;;;;;9.35;6.35;;;11.80;99.90;;;;;;5075212;28;20235;-85
2023/06/01 03:18:05;;;;;;;15.50;6.68;;;11.80;99.90;;;;;;5075113;28;20197;-88
2023/06/01 03:20:32;;;;;;;14.07;7.15;;;11.90;99.90;;;;;;5073527;28;20213;-85
2023/06/01 03:22:58;;;;;;;12.60;6.35;;;11.90;99.90;;;;;;5073547;28;20169;-88
2023/06/01 03:25:24;;;;;;;14.00;7.57;;;11.90;99.90;;;;;;5073554;28;20184;-86
2023/06/01 03:27:51;;;;;;;15.05;7.13;;;11.90;99.90;;;;;;5073695;28;20185;-85
2023/06/01 03:30:17;;;;;;;12.65;6.90;;;11.90;99.90;;;;;;5073734;28;20178;-85
2023/06/01 03:32:44;;;;;;;16.70;6.63;;;11.90;99.90;;;;;;5073541;28;20181;-85
2023/06/01 03:35:11;;;;;;;12.43;5.90;;;12.00;99.90;;;;;;5078823;28;20518;-86
2023/06/01 03:37:39;;;;;;;14.93;6.45;;;12.00;99.90;;;;;;5094525;28;20207;-86
2023/06/01 03:40:12;;;;;;;16.48;7.38;;;11.90;99.90;;;;;;5093323;28;20184;-86
2023/06/01 03:42:42;;;;;;;13.60;6.55;;;12.00;99.90;;;;;;5092409;28;20177;-86
2023/06/01 03:45:09;;;;;;;18.63;6.93;;;11.90;99.90;;;;;;5093297;28;20180;-86
2023/06/01 03:47:35;;;;;;;11.45;6.78;;;11.90;99.90;;;;;;5093826;28;20214;-84
2023/06/01 03:50:02;;;;;;;17.92;6.80;;;11.90;99.90;;;;;;5093386;28;20508;-84
2023/06/01 03:52:28;;;;;;;11.57;6.68;;;11.90;99.90;;;;;;5094379;28;20497;-85
2023/06/01 03:54:55;;;;;;;11.68;6.63;;;11.90;99.90;;;;;;5093871;28;20165;-87
2023/06/01 03:57:22;;;;;;;14.38;6.53;;;11.90;99.90;;;;;;5093312;28;20630;-84
2023/06/01 03:59:48;;;;;;;12.70;6.53;;;11.90;99.90;;;;;;5084012;28;20682;-88
2023/06/01 04:02:13;;;;;;;13.85;6.40;;;11.80;99.90;;;;;;5072960;28;20351;-86
2023/06/01 04:04:40;;;;;;;12.88;6.43;;;11.80;99.90;;;;;;5073395;28;20607;-85
2023/06/01 04:07:09;;;;;;;12.75;6.57;;;11.80;99.90;;;;;;5072898;28;20531;-85
2023/06/01 04:09:37;;;;;;;10.48;6.10;;;11.90;99.90;;;;;;5072884;28;20204;-86
2023/06/01 04:12:03;;;;;;;13.43;6.50;;;11.90;99.90;;;;;;5074265;28;20684;-86
2023/06/01 04:14:29;;;;;;;14.43;6.47;;;11.80;99.90;;;;;;5093305;28;20215;-86
2023/06/01 04:16:56;;;;;;;13.63;6.00;;;11.90;99.90;;;;;;5093067;28;20200;-86
2023/06/01 04:19:21;;;;;;;12.32;6.13;;;11.90;99.90;;;;;;5093083;28;20188;-86
2023/06/01 04:21:49;;;;;;;16.75;6.47;;;12.00;99.90;;;;;;5094177;28;20208;-87
2023/06/01 04:24:15;;;;;;;10.85;5.90;;;12.10;99.90;;;;;;5093078;28;20225;-87
2023/06/01 04:26:41;;;;;;;11.85;6.22;;;12.10;99.90;;;;;;5094579;28;20202;-87
2023/06/01 04:29:11;;;;;;;15.68;5.57;;;12.10;99.90;;;;;;5094403;28;20164;-87
2023/06/01 04:31:39;;;;;;;11.13;5.82;;;12.00;99.90;;;;;;5093992;28;20163;-87
2023/06/01 04:34:05;;;;;;;8.88;5.50;;;12.00;99.90;;;;;;5092914;28;20172;-86
2023/06/01 04:36:32;;;;;;;12.20;5.68;;;12.00;99.90;;;;;;5092860;28;20620;-86
2023/06/01 04:38:58;;;;;;;8.95;5.53;;;12.00;99.90;;;;;;5092880;28;20322;-86
2023/06/01 04:41:28;;;;;;;10.52;5.30;;;12.10;99.90;;;;;;5094035;28;20350;-85
2023/06/01 04:43:54;;;;;;;14.02;5.97;;;12.10;99.90;;;;;;5093004;28;20188;-87
2023/06/01 04:46:23;;;;;;;12.77;5.65;;;12.10;99.90;;;;;;5093767;28;20176;-87
2023/06/01 04:48:51;;;;;;;12.23;5.78;;;12.10;99.90;;;;;;5092866;28;20184;-87
2023/06/01 04:51:21;;;;;;;11.50;5.55;;;12.10;99.90;;;;;;5092796;28;20181;-87
2023/06/01 04:53:51;;;;;;;13.90;6.25;;;12.10;99.90;;;;;;5094163;28;20161;-86
2023/06/01 04:56:24;;;;;;;15.30;5.88;;;12.10;99.90;;;;;;5072477;28;20181;-85
2023/06/01 04:58:51;;;;;;;11.05;5.43;;;12.10;99.90;;;;;;5073827;28;20153;-86
2023/06/01 05:01:17;;;;;;;11.05;5.97;;;12.10;99.90;;;;;;5071930;28;20209;-86
2023/06/01 05:03:46;;;;;;;9.43;5.55;;;12.00;99.90;;;;;;5073052;28;20615;-84
2023/06/01 05:06:13;;;;;;;9.20;4.90;;;12.10;99.90;;;;;;5075518;28;20232;-85
2023/06/01 05:08:42;;;;;;;8.95;5.60;;;12.00;99.90;;;;;;5077049;28;20181;-86
2023/06/01 05:11:09;;;;;;;6.68;4.50;;;12.00;99.90;;;;;;5076310;28;20212;-88
2023/06/01 05:13:36;;;;;;;8.55;4.82;;;12.10;99.90;;;;;;5089119;28;20184;-87
2023/06/01 05:16:06;;;;;;;9.55;4.43;;;12.10;99.90;;;;;;5097473;28;20172;-86
2023/06/01 05:18:33;;;;;;;8.82;5.03;;;12.00;99.90;;;;;;5089336;28;20204;-86
2023/06/01 05:20:59;;;;;;;9.50;4.80;;;12.10;99.90;;;;;;5077325;28;20201;-87
2023/06/01 05:23:26;;;;;;;7.47;4.10;;;12.10;99.90;;;;;;5075969;28;20508;-86
2023/06/01 05:25:54;;;;;;;10.00;5.20;;;12.10;99.90;;;;;;5075825;28;20169;-87
2023/06/01 05:28:20;;;;;;;10.57;5.15;;;12.10;99.90;;;;;;5075718;28;20181;-86
2023/06/01 05:30:47;;;;;;;10.85;4.82;;;12.10;99.90;;;;;;5075127;28;20728;-85
2023/06/01 05:33:13;;;;;;;7.82;4.97;;;12.10;99.90;;;;;;5076865;28;20185;-86
2023/06/01 05:35:38;;;;;;;8.68;4.50;;;12.20;99.90;;;;;;5077038;28;20248;-86
2023/06/01 05:38:04;;;;;;;10.80;5.00;;;12.20;99.90;;;;;;5076881;28;20556;-85
2023/06/01 05:40:30;;;;;;;11.40;5.47;;;12.30;99.90;;;;;;5076996;28;20278;-88
2023/06/01 05:42:55;;;;;;;9.98;4.82;;;12.20;99.90;;;;;;5083039;28;20189;-84
2023/06/01 05:45:21;;;;;;;8.07;5.10;;;12.30;99.90;;;;;;5095802;28;20171;-85
2023/06/01 05:47:47;;;;;;;10.65;4.82;;;12.30;99.90;;;;;;5097189;28;20268;-85
2023/06/01 05:50:12;;;;;;;8.95;4.70;;;12.30;99.90;;;;;;5096093;28;20180;-86
2023/06/01 05:52:42;;;;;;;10.48;4.53;;;12.30;99.90;;;;;;5095875;28;20181;-88
2023/06/01 05:55:08;;;;;;;9.57;5.30;;;12.30;99.90;;;;;;5097124;28;20238;-84
2023/06/01 05:57:34;;;;;;;13.77;5.15;;;12.30;99.90;;;;;;5096789;28;20629;-85
2023/06/01 05:59:59;;;;;;;9.32;4.38;;;12.40;99.90;;;;;;5097164;28;20192;-88
2023/06/01 06:02:26;;;;;;;20.00;5.28;;;12.40;99.90;;;;;;5095272;28;20696;-88
2023/06/01 06:04:52;;;;;;;6.55;4.38;;;12.30;99.90;;;;;;5097007;28;20212;-86
2023/06/01 06:07:17;;;;;;;5.93;4.00;;;12.30;99.90;;;;;;5095641;28;20176;-87
2023/06/01 06:09:43;;;;;;;8.75;4.70;;;12.40;99.90;;;;;;5095712;28;20583;-88
2023/06/01 06:12:09;;;;;;;7.63;4.60;;;12.40;99.90;;;;;;5095640;28;20180;-87
2023/06/01 06:14:35;;;;;;;12.95;5.07;;;12.30;99.90;;;;;;5095718;28;20562;-87
2023/06/01 06:17:02;;;;;;;9.25;4.53;;;12.30;99.90;;;;;;5095804;28;20181;-87
2023/06/01 06:19:28;;;;;;;7.20;4.63;;;12.30;99.90;;;;;;5095391;28;20275;-85
2023/06/01 06:21:53;;;;;;;8.77;4.80;;;12.20;99.90;;;;;;5095320;28;20303;-86
2023/06/01 06:24:19;;;;;;;7.50;4.35;;;12.20;99.90;;;;;;5096327;28;20160;-85
2023/06/01 06:26:45;;;;;;;8.52;4.53;;;12.30;99.90;;;;;;5095019;28;20287;-84
2023/06/01 06:29:11;;;;;;;7.68;3.97;;;12.40;99.90;;;;;;5095108;28;20215;-85
2023/06/01 06:31:36;;;;;;;10.02;3.97;;;12.40;99.90;;;;;;5095211;28;20239;-87
2023/06/01 06:34:02;;;;;;;7.50;4.05;;;12.50;99.90;;;;;;5095168;28;20191;-87
2023/06/01 06:36:28;;;;;;;8.95;3.67;;;12.60;99.90;;;;;;5095196;28;20521;-85
2023/06/01 06:38:53;;;;;;;10.85;4.60;;;12.60;99.90;;;;;;5095113;28;20569;-86
2023/06/01 06:41:20;;;;;;;8.43;3.70;;;12.60;99.90;;;;;;5095902;28;20250;-86
2023/06/01 06:43:46;;;;;;;8.77;4.15;;;12.60;99.90;;;;;;5093600;28;20176;-88
2023/06/01 06:46:12;;;;;;;7.43;4.03;;;12.60;99.90;;;;;;5094774;28;20967;-85
2023/06/01 06:48:37;;;;;;;7.00;3.70;;;12.60;99.90;;;;;;5096307;28;20187;-86
2023/06/01 06:51:03;;;;;;;7.97;4.20;;;12.60;99.90;;;;;;5096180;28;20172;-85
2023/06/01 06:53:30;;;;;;;7.25;4.28;;;12.60;99.90;;;;;;5095764;28;20184;-86
2023/06/01 06:55:56;;;;;;;6.57;3.78;;;12.60;99.90;;;;;;5095785;28;20213;-85
2023/06/01 06:58:21;;;;;;;6.25;3.63;;;12.60;99.90;;;;;;5094632;28;20271;-86
2023/06/01 07:00:47;;;;;;;7.93;4.05;;;12.70;99.90;;;;;;5095292;28;20204;-86
2023/06/01 07:03:14;;;;;;;7.18;4.03;;;12.80;99.90;;;;;;5095594;28;20180;-87
2023/06/01 07:05:40;;;;;;;6.55;3.47;;;12.80;99.90;;;;;;5094325;28;20229;-86
2023/06/01 07:08:05;;;;;;;6.88;3.70;;;12.90;99.90;;;;;;5095524;28;20169;-85
2023/06/01 07:10:31;;;;;;;11.52;3.80;;;13.00;99.90;;;;;;5094254;28;20204;-84
2023/06/01 07:12:57;;;;;;;7.60;3.83;;;13.00;99.90;;;;;;5093965;28;20218;-85
2023/06/01 07:15:24;;;;;;;7.10;3.28;;;13.00;99.90;;;;;;5095303;28;20169;-86
2023/06/01 07:17:50;;;;;;;8.95;3.70;;;13.00;99.90;;;;;;5095506;28;20173;-84
2023/06/01 07:20:16;;;;;;;7.50;3.72;;;13.00;99.90;;;;;;5095354;28;20522;-88
2023/06/01 07:22:42;;;;;;;8.57;3.97;;;13.10;99.90;;;;;;5095135;28;20247;-84
2023/06/01 07:25:09;;;;;;;7.57;3.47;;;13.20;99.90;;;;;;5094980;28;20469;-84
2023/06/01 07:27:36;;;;;;;8.70;3.75;;;13.20;99.90;;;;;;5093975;28;20264;-84
2023/06/01 07:30:07;;;;;;;7.50;3.42;;;13.30;99.90;;;;;;5095049;28;20572;-86
2023/06/01 07:32:33;;;;;;;7.47;4.10;;;13.30;99.90;;;;;;5094063;28;20173;-85
2023/06/01 07:35:02;;;;;;;8.43;3.67;;;13.20;99.90;;;;;;5094391;28;20192;-86
2023/06/01 07:37:27;;;;;;;6.60;3.90;;;13.20;99.90;;;;;;5093853;28;20267;-87
2023/06/01 07:39:54;;;;;;;7.60;3.72;;;13.30;99.90;;;;;;5093845;28;20638;-87
2023/06/01 07:42:20;;;;;;;7.97;3.50;;;13.50;99.90;;;;;;5093552;28;20212;-85
2023/06/01 07:44:46;;;;;;;9.88;3.83;;;13.60;99.90;;;;;;5094913;28;20561;-85
2023/06/01 07:47:12;;;;;;;9.00;3.97;;;13.80;99.90;;;;;;5093536;28;20183;-85
2023/06/01 07:49:38;;;;;;;7.40;3.28;;;13.70;99.90;;;;;;5094872;28;20226;-85
2023/06/01 07:52:05;;;;;;;7.78;3.78;;;13.80;99.90;;;;;;5094473;28;20177;-85
2023/06/01 07:54:32;;;;;;;11.95;3.47;;;13.90;99.90;;;;;;5093191;28;20180;-85
2023/06/01 07:56:58;;;;;;;8.20;3.72;;;13.90;99.90;;;;;;5093499;28;20207;-86
2023/06/01 07:59:24;;;;;;;7.43;3.90;;;13.90;99.90;;;;;;5094625;28;20172;-85
2023/06/01 08:01:51;;;;;;;9.18;3.97;;;14.00;99.90;;;;;;5093055;28;20212;-85
2023/06/01 08:04:20;;;;;;;6.75;3.50;;;13.90;99.90;;;;;;5093873;28;20172;-85
2023/06/01 08:06:47;;;;;;;9.82;3.90;;;13.80;99.90;;;;;;5093006;28;20231;-83
2023/06/01 08:09:12;;;;;;;8.30;3.67;;;13.90;99.90;;;;;;5094398;28;20605;-85
2023/06/01 08:11:38;;;;;;;8.45;3.53;;;13.80;99.90;;;;;;5094413;28;20187;-84
2023/06/01 08:14:07;;;;;;;7.95;3.60;;;13.90;99.90;;;;;;5094281;28;20183;-83
2023/06/01 08:16:33;;;;;;;13.48;4.07;;;13.90;99.90;;;;;;5092843;28;20187;-85
2023/06/01 08:18:59;;;;;;;10.13;3.80;;;14.00;99.90;;;;;;5094086;28;20168;-86
2023/06/01 08:21:25;;;;;;;13.52;4.00;;;13.90;99.90;;;;;;5094086;28;20208;-87
2023/06/01 08:23:54;;;;;;;10.65;3.80;;;13.90;99.90;;;;;;5092950;28;20172;-84
2023/06/01 08:26:23;;;;;;;9.00;4.10;;;13.90;99.90;;;;;;5092980;28;20215;-85
2023/06/01 08:28:52;;;;;;;10.07;3.95;;;13.90;99.90;;;;;;5093006;28;20172;-86
2023/06/01 08:31:23;;;;;;;11.00;4.57;;;13.90;99.90;;;;;;5092571;28;20191;-86
2023/06/01 08:33:50;;;;;;;7.43;3.28;;;13.90;99.90;;;;;;5092709;28;20519;-87
2023/06/01 08:36:17;;;;;;;9.35;3.83;;;14.00;99.90;;;;;;5092938;28;20233;-84
2023/06/01 08:38:43;;;;;;;7.68;3.45;;;14.10;99.90;;;;;;5092893;28;20260;-85
2023/06/01 08:41:26;;;;;;;11.88;4.10;;;14.20;99.90;;;;;;5093444;28;20288;-84
2023/06/01 08:44:06;;;;;;;7.57;3.10;;;14.40;99.90;;;;;;5093949;28;20176;-88
2023/06/01 08:46:32;;;;;;;9.00;3.75;;;14.50;99.90;;;;;;5092383;28;20173;-86
2023/06/01 08:48:59;;;;;;;8.00;3.70;;;14.70;99.90;;;;;;5093814;28;20215;-86
2023/06/01 08:51:25;;;;;;;14.23;4.40;;;14.90;99.90;;;;;;5093953;28;20168;-87
2023/06/01 08:53:57;;;;;;;11.23;3.55;;;14.90;99.90;;;;;;5092650;28;20237;-87
2023/06/01 08:56:23;;;;;;;8.40;3.75;;;15.00;99.90;;;;;;5092558;28;20176;-84
2023/06/01 08:58:50;;;;;;;9.57;3.67;;;15.10;99.90;;;;;;5092409;28;20179;-86
2023/06/01 09:01:21;;;;;;;9.10;4.03;;;15.20;99.90;;;;;;5092432;28;20264;-84
2023/06/01 09:03:48;;;;;;;11.32;4.20;;;15.40;99.90;;;;;;5092151;28;20187;-87
2023/06/01 09:06:15;;;;;;;6.40;3.35;;;15.30;99.90;;;;;;5093899;28;20247;-86
2023/06/01 09:08:41;;;;;;;10.23;3.60;;;15.40;99.90;;;;;;5093828;28;20175;-87
2023/06/01 09:11:06;;;;;;;10.07;3.90;;;15.70;99.90;;;;;;5092149;28;20173;-88
2023/06/01 09:13:35;;;;;;;7.00;3.60;;;16.10;99.90;;;;;;5092627;28;20622;-89
2023/06/01 09:16:01;;;;;;;8.38;3.78;;;16.10;99.90;;;;;;5092733;28;20557;-86
2023/06/01 09:18:27;;;;;;;10.48;4.00;;;16.10;99.90;;;;;;5092628;28;20621;-86
2023/06/01 09:20:53;;;;;;;10.90;4.20;;;16.00;99.90;;;;;;5076348;28;20304;-84
2023/06/01 09:23:26;;;;;;;8.98;4.40;;;15.90;99.90;;;;;;5072397;28;20188;-86
2023/06/01 09:26:05;;;;;;;8.23;4.60;;;16.00;99.90;;;;;;5073579;28;20173;-87
2023/06/01 09:28:58;;;;;;;10.20;4.30;;;15.80;99.90;;;;;;5072393;28;20582;-86
2023/06/01 09:31:44;;;;;;;9.00;4.65;;;15.70;99.90;;;;;;5071896;28;20286;-87
2023/06/01 09:34:15;;;;;;;9.55;4.15;;;15.70;99.90;;;;;;5072229;28;20534;-88
2023/06/01 09:36:41;;;;;;;10.60;4.00;;;15.70;99.90;;;;;;5072303;28;20607;-88
2023/06/01 09:39:10;;;;;;;9.25;4.32;;;15.80;99.90;;;;;;5072174;28;20187;-85
2023/06/01 09:41:49;;;;;;;8.30;4.13;;;15.70;99.90;;;;;;5073110;28;20211;-87
2023/06/01 09:44:42;;;;;;;9.60;4.47;;;15.90;99.90;;;;;;5087213;28;20183;-85
2023/06/01 09:47:12;;;;;;;13.38;4.20;;;16.30;99.90;;;;;;5092928;28;20192;-88
2023/06/01 09:49:42;;;;;;;6.85;4.07;;;16.70;99.90;;;;;;5093588;28;20584;-87
2023/06/01 09:52:12;;;;;;;10.55;4.03;;;16.80;99.90;;;;;;5095751;28;20678;-86
2023/06/01 09:54:44;;;;;;;10.13;4.35;;;16.90;99.90;;;;;;5096541;28;20180;-85
2023/06/01 09:57:11;;;;;;;9.52;4.82;;;17.00;99.90;;;;;;5095743;28;20176;-87
2023/06/01 09:59:45;;;;;;;10.25;4.25;;;17.10;99.90;;;;;;5095919;28;20631;-87
2023/06/01 10:02:18;;;;;;;12.10;4.53;;;17.10;99.90;;;;;;5096077;28;20209;-86
2023/06/01 10:04:53;;;;;;;10.45;4.63;;;17.20;99.90;;;;;;5095451;28;20595;-86
2023/06/01 10:07:20;;;;;;;9.40;4.30;;;17.30;99.90;;;;;;5096727;28;20180;-87
2023/06/01 10:09:58;;;;;;;11.65;4.35;;;17.40;99.90;;;;;;5095564;28;20180;-87
2023/06/01 10:12:25;;;;;;;11.32;4.70;;;17.40;99.90;;;;;;5096668;28;20210;-85
2023/06/01 10:14:52;;;;;;;11.85;5.10;;;17.50;99.90;;;;;;5095509;28;20259;-85
2023/06/01 10:17:19;;;;;;;11.50;5.10;;;17.40;99.90;;;;;;5097013;28;20202;-88
2023/06/01 10:19:45;;;;;;;12.23;4.68;;;17.60;99.90;;;;;;5096182;28;20173;-89
2023/06/01 10:22:11;;;;;;;11.93;5.07;;;17.50;99.90;;;;;;5095715;28;20651;-87
2023/06/01 10:24:41;;;;;;;10.32;4.97;;;17.20;99.90;;;;;;5095612;28;20173;-88
2023/06/01 10:27:15;;;;;;;8.57;4.30;;;17.30;99.90;;;;;;5095694;28;20180;-88
2023/06/01 10:29:42;;;;;;;8.70;4.45;;;17.40;99.90;;;;;;5096480;28;20168;-89
2023/06/01 10:32:45;;;;;;;9.40;4.15;;;17.60;99.90;;;;;;5095235;28;20211;-87
2023/06/01 10:35:41;;;;;;;8.32;4.35;;;17.50;99.90;;;;;;5095456;28;20177;-89
2023/06/01 10:38:07;;;;;;;8.40;3.92;;;17.60;99.90;;;;;;5086086;28;20525;-86
2023/06/01 10:40:37;;;;;;;7.88;3.80;;;17.70;99.90;;;;;;5096037;28;20175;-88
2023/06/01 10:43:03;;;;;;;9.10;4.20;;;17.80;99.90;;;;;;5094689;28;20188;-86
2023/06/01 10:45:35;;;;;;;8.00;3.70;;;18.10;99.90;;;;;;5095331;28;20204;-89
2023/06/01 10:48:06;;;;;;;9.93;3.47;;;18.30;99.90;;;;;;5095104;28;20173;-89
2023/06/01 10:50:33;;;;;;;10.75;4.00;;;18.30;99.90;;;;;;5095780;28;20227;-87
2023/06/01 10:53:25;;;;;;;6.45;3.13;;;18.10;99.90;;;;;;5096398;28;20180;-88
2023/06/01 10:56:23;;;;;;;8.35;3.50;;;18.10;99.90;;;;;;5095228;28;20633;-89
2023/06/01 10:59:07;;;;;;;6.18;3.03;;;18.20;99.90;;;;;;5095118;28;20191;-88
2023/06/01 11:01:41;;;;;;;16.05;13.23;;;18.30;99.90;;;;;;5095003;28;20207;-88
2023/06/01 11:04:09;;;;;;;47.78;41.55;;;18.40;99.90;;;;;;5094467;28;20175;-89
2023/06/01 11:06:37;;;;;;;108.38;80.07;;;18.50;99.90;;;;;;5094598;28;20232;-87
2023/06/01 11:09:08;;;;;;;48.78;34.03;;;19.10;99.90;;;;;;5095168;28;20181;-88
2023/06/01 11:11:52;;;;;;;6.30;3.75;;;19.30;99.90;;;;;;5094540;28;20172;-87
2023/06/01 11:14:21;;;;;;;7.35;3.90;;;19.10;99.60;;;;;;5095049;28;20184;-85
2023/06/01 11:16:47;;;;;;;7.30;3.63;;;19.00;99.90;;;;;;5094546;28;20241;-87
2023/06/01 11:19:27;;;;;;;8.90;4.32;;;19.00;99.90;;;;;;5094417;28;20180;-86
2023/06/01 11:22:03;;;;;;;11.77;4.50;;;19.00;99.90;;;;;;5094504;28;20197;-88
2023/06/01 11:24:43;;;;;;;8.70;3.70;;;18.90;99.70;;;;;;5093042;28;20235;-87
2023/06/01 11:27:11;;;;;;;5.88;3.28;;;18.70;99.10;;;;;;5058748;28;20193;-88
2023/06/01 11:29:37;;;;;;;7.85;3.33;;;18.50;99.90;;;;;;5060085;28;20182;-86
2023/06/01 11:32:05;;;;;;;6.43;3.10;;;18.50;99.90;;;;;;5073738;28;20181;-84
2023/06/01 11:34:38;;;;;;;5.55;3.28;;;18.50;99.90;;;;;;5073725;28;20177;-85
2023/06/01 11:37:05;;;;;;;23.35;5.07;;;18.80;99.90;;;;;;5073668;28;20169;-84
2023/06/01 11:39:31;;;;;;;6.18;3.38;;;19.00;99.90;;;;;;5074936;28;20235;-83
2023/06/01 11:42:10;;;;;;;6.50;3.10;;;19.00;99.90;;;;;;5074854;28;20267;-87
2023/06/01 11:44:43;;;;;;;10.38;3.00;;;19.10;99.80;;;;;;5074278;28;20619;-86
2023/06/01 11:47:10;;;;;;;6.05;2.97;;;19.10;99.90;;;;;;5073921;28;20174;-89
2023/06/01 11:49:48;;;;;;;6.05;3.50;;;18.70;98.80;;;;;;5073341;28;20173;-84
2023/06/01 11:52:15;;;;;;;6.45;3.10;;;18.40;99.90;;;;;;5073092;28;20197;-85
2023/06/01 11:54:41;;;;;;;8.18;3.35;;;18.70;99.90;;;;;;5073412;28;20177;-88
2023/06/01 11:57:07;;;;;;;6.53;2.80;;;19.00;99.90;;;;;;5074875;28;20161;-86
2023/06/01 11:59:51;;;;;;;6.45;3.20;;;19.20;99.90;;;;;;5073186;28;20179;-85
2023/06/01 12:02:21;;;;;;;4.50;2.80;;;19.10;98.80;;;;;;5074524;28;20201;-85
2023/06/01 12:05:06;;;;;;;5.93;3.08;;;19.10;99.60;;;;;;5074468;28;20173;-85
2023/06/01 12:07:43;;;;;;;7.32;2.90;;;19.10;99.90;;;;;;5073380;28;20181;-91
2023/06/01 12:10:14;;;;;;;4.50;2.65;;;19.20;99.20;;;;;;5073307;28;20169;-86
2023/06/01 12:12:41;;;;;;;8.93;2.90;;;19.10;99.90;;;;;;5076166;28;20522;-86
2023/06/01 12:15:19;;;;;;;8.43;3.10;;;19.30;98.50;;;;;;5093463;28;20207;-88
2023/06/01 12:17:53;;;;;;;7.40;3.30;;;19.50;99.70;;;;;;5093510;28;20210;-87
2023/06/01 12:20:33;;;;;;;8.65;2.92;;;19.80;98.40;;;;;;5091630;28;20642;-87
2023/06/01 12:23:03;;;;;;;5.65;2.70;;;19.90;99.20;;;;;;5092829;28;20192;-85
2023/06/01 12:25:32;;;;;;;8.98;2.70;;;20.00;97.70;;;;;;5093189;28;20607;-85
2023/06/01 12:28:03;;;;;;;5.45;2.20;;;20.10;98.20;;;;;;5093052;28;20213;-84
2023/06/01 12:30:29;;;;;;;8.35;3.03;;;20.10;98.20;;;;;;5091952;28;20517;-88
2023/06/01 12:32:54;;;;;;;5.22;2.47;;;20.10;97.90;;;;;;5093329;28;20177;-85
2023/06/01 12:35:23;;;;;;;4.60;2.80;;;20.00;97.80;;;;;;5092855;28;20172;-85
2023/06/01 12:38:10;;;;;;;4.85;2.90;;;20.00;99.50;;;;;;5091845;28;20184;-87
2023/06/01 12:40:36;;;;;;;6.43;2.63;;;20.00;97.40;;;;;;5092893;28;20172;-87
2023/06/01 12:43:06;;;;;;;5.97;2.65;;;20.00;98.10;;;;;;5091516;28;20526;-85
2023/06/01 12:45:36;;;;;;;6.22;2.78;;;20.20;98.20;;;;;;5094305;28;20587;-85
2023/06/01 12:48:02;;;;;;;5.43;2.63;;;20.00;97.40;;;;;;5091851;28;20188;-85
2023/06/01 12:50:27;;;;;;;6.03;2.58;;;20.10;97.80;;;;;;5094338;28;20188;-85
2023/06/01 12:52:53;;;;;;;5.78;2.70;;;20.10;98.70;;;;;;5080098;28;20185;-87